Eagleville, Tennessee
Current Conditions -  °F | °C
As of 8:53 AM on Sunday 23 Nov 2014 (Local Time) from KBNA Reporting Station
Overcast Overcast  
Wind Chill: 59°   Ceiling: 2200
Heat Index: 59°   Visibility: 10mi
Dew Point: 51°   Wind: 8mph
Humidity: 75%   Direction: 140°SE
Pressure: 29.85"   Gusts: NA
Location:  35.74°N, 86.65°W
Report Text: KBNA 231453Z 14007KT 10SM BKN022 OVC031 15/11 A2985 RMK AO2 RAB1358E15 SLP105 P0000 60000 T01500106 58025
Loading
Personal Weather Stations






























Interactive Weather Map New forecast layout! Learn more

10-Day Weather Forecast

Advertisements
Track Severe Weather on mobile